createdAt,value
2017-05-31T00:00:56.814Z,100773.16
2017-05-31T00:03:25.873Z,100771.89
2017-05-31T00:05:54.955Z,100781.77
2017-05-31T00:08:23.996Z,100773.92
2017-05-31T00:10:53.075Z,100776.94
2017-05-31T00:13:22.134Z,100771.00
2017-05-31T00:15:50.433Z,100774.58
2017-05-31T00:18:18.920Z,100776.65
2017-05-31T00:20:48.016Z,100771.80
2017-05-31T00:23:17.080Z,100777.59
2017-05-31T00:25:46.128Z,100774.95
2017-05-31T00:28:14.423Z,100777.84
2017-05-31T00:30:43.497Z,100779.07
2017-05-31T00:33:12.569Z,100778.48
2017-05-31T00:35:41.637Z,100777.08
2017-05-31T00:38:10.808Z,100779.75
2017-05-31T00:40:39.929Z,100786.91
2017-05-31T00:43:08.271Z,100783.11
2017-05-31T00:45:37.311Z,100789.84
2017-05-31T00:48:05.604Z,100786.91
2017-05-31T00:50:34.668Z,100791.25
2017-05-31T00:53:02.984Z,100789.48
2017-05-31T00:55:31.271Z,100793.45
2017-05-31T00:58:00.333Z,100791.53
2017-05-31T01:00:29.388Z,100796.91
2017-05-31T01:02:58.457Z,100796.26
2017-05-31T01:05:26.765Z,100795.28
2017-05-31T01:07:55.827Z,100799.28
2017-05-31T01:10:24.877Z,100813.08
2017-05-31T01:12:53.936Z,100809.98
2017-05-31T01:15:22.267Z,100808.88
2017-05-31T01:17:51.570Z,100812.86
2017-05-31T01:20:20.653Z,100806.72
2017-05-31T01:22:49.121Z,100813.27
2017-05-31T01:25:18.247Z,100810.68
2017-05-31T01:27:47.290Z,100820.69
2017-05-31T01:30:16.335Z,100825.28
2017-05-31T01:32:44.668Z,100824.63
2017-05-31T01:35:13.737Z,100817.63
2017-05-31T01:37:42.785Z,100824.42
2017-05-31T01:40:11.889Z,100822.19
2017-05-31T01:42:40.955Z,100821.69
2017-05-31T01:45:09.272Z,100822.02
2017-05-31T01:47:38.336Z,100822.23
2017-05-31T01:50:07.394Z,100824.97
2017-05-31T01:52:36.430Z,100827.16
2017-05-31T01:55:05.760Z,100824.44
2017-05-31T01:57:34.833Z,100827.12
2017-05-31T02:00:03.934Z,100829.27
2017-05-31T02:02:32.239Z,100827.34
2017-05-31T02:05:01.284Z,100827.20
2017-05-31T02:07:29.577Z,100820.66
2017-05-31T02:09:58.620Z,100819.55
2017-05-31T02:12:27.675Z,100821.14
2017-05-31T02:14:56.751Z,100813.37
2017-05-31T02:17:25.029Z,100815.40
2017-05-31T02:19:54.148Z,100815.76
2017-05-31T02:22:22.467Z,100809.32
2017-05-31T02:24:51.145Z,100810.57
2017-05-31T02:27:20.198Z,100815.05
2017-05-31T02:29:49.278Z,100821.33
2017-05-31T02:32:18.365Z,100819.34
2017-05-31T02:34:46.684Z,100817.53
2017-05-31T02:37:16.037Z,100822.41
2017-05-31T02:39:45.085Z,100820.26
2017-05-31T02:42:13.402Z,100824.38
2017-05-31T02:44:41.693Z,100829.58
2017-05-31T02:47:10.763Z,100835.46
2017-05-31T02:49:39.820Z,100832.75
2017-05-31T02:52:08.112Z,100823.47
2017-05-31T02:54:36.428Z,100826.05
2017-05-31T02:57:05.488Z,100824.89
2017-05-31T02:59:34.604Z,100820.23
2017-05-31T03:02:03.681Z,100819.58
2017-05-31T03:04:32.750Z,100824.34
2017-05-31T03:07:01.816Z,100826.95
2017-05-31T03:09:30.863Z,100833.64
2017-05-31T03:11:59.937Z,100827.58
2017-05-31T03:14:28.277Z,100832.03
2017-05-31T03:16:57.356Z,100838.02
2017-05-31T03:19:26.403Z,100832.52
2017-05-31T03:21:54.709Z,100843.02
2017-05-31T03:24:23.780Z,100833.19
2017-05-31T03:26:52.080Z,100838.59
2017-05-31T03:29:21.163Z,100838.09
2017-05-31T03:31:49.452Z,100832.70
2017-05-31T03:34:17.825Z,100832.34
2017-05-31T03:36:46.900Z,100834.77
2017-05-31T03:39:16.016Z,100843.18
2017-05-31T03:41:44.309Z,100841.33
2017-05-31T03:44:12.637Z,100846.21
2017-05-31T03:46:40.933Z,100847.63
2017-05-31T03:49:10.294Z,100849.00
2017-05-31T03:51:39.357Z,100850.52
2017-05-31T03:54:08.455Z,100840.52
2017-05-31T03:56:36.775Z,100846.53
2017-05-31T03:59:05.948Z,100853.44
2017-05-31T04:01:34.256Z,100857.56
2017-05-31T04:04:03.360Z,100854.64
2017-05-31T04:06:31.660Z,100852.95
2017-05-31T04:09:00.759Z,100851.16
2017-05-31T04:11:29.037Z,100857.79
2017-05-31T04:13:58.084Z,100860.67
2017-05-31T04:16:26.381Z,100862.05
2017-05-31T04:18:55.452Z,100860.41
2017-05-31T04:21:24.526Z,100865.27
2017-05-31T04:23:53.587Z,100870.96
2017-05-31T04:26:22.640Z,100874.77
2017-05-31T04:28:51.756Z,100876.92
2017-05-31T04:31:20.805Z,100879.05
2017-05-31T04:33:49.225Z,100885.95
2017-05-31T04:36:18.545Z,100886.84
2017-05-31T04:38:48.024Z,100887.13
2017-05-31T04:41:17.089Z,100887.75
2017-05-31T04:43:45.372Z,100903.12
2017-05-31T04:46:13.681Z,100909.30
2017-05-31T04:48:42.792Z,100907.52
2017-05-31T04:51:11.837Z,100911.36
2017-05-31T04:53:40.120Z,100914.20
2017-05-31T04:56:09.224Z,100918.63
2017-05-31T04:58:38.300Z,100920.09
2017-05-31T05:01:06.600Z,100925.16
2017-05-31T05:03:34.911Z,100925.61
2017-05-31T05:06:03.229Z,100932.52
2017-05-31T05:08:32.414Z,100926.75
2017-05-31T05:11:01.464Z,100929.70
2017-05-31T05:13:30.517Z,100932.14
2017-05-31T05:15:58.822Z,100938.42
2017-05-31T05:18:27.867Z,100939.06
2017-05-31T05:20:56.993Z,100939.81
2017-05-31T05:23:26.049Z,100939.64
2017-05-31T05:25:57.052Z,100939.77
2017-05-31T05:28:26.109Z,100945.59
2017-05-31T05:30:54.446Z,100942.69
2017-05-31T05:33:23.516Z,100940.73
2017-05-31T05:35:52.576Z,100945.10
2017-05-31T05:38:21.656Z,100947.98
2017-05-31T05:40:50.452Z,100945.09
2017-05-31T05:43:19.489Z,100949.20
2017-05-31T05:45:48.574Z,100944.86
2017-05-31T05:48:17.629Z,100950.19
2017-05-31T05:50:46.679Z,100951.60
2017-05-31T05:53:15.012Z,100950.83
2017-05-31T05:55:44.072Z,100959.94
2017-05-31T05:58:12.430Z,100963.04
2017-05-31T06:00:41.534Z,100975.36
2017-05-31T06:03:09.855Z,100973.44
2017-05-31T06:05:38.900Z,100983.34
2017-05-31T06:08:07.364Z,100979.13
2017-05-31T06:10:36.420Z,100977.15
2017-05-31T06:13:04.713Z,100976.45
2017-05-31T06:15:34.393Z,100974.39
2017-05-31T06:18:03.485Z,100975.36
2017-05-31T06:20:32.564Z,100977.83
2017-05-31T06:23:01.630Z,100981.41
2017-05-31T06:25:30.684Z,100996.02
2017-05-31T06:27:59.769Z,100996.95
2017-05-31T06:30:28.817Z,100996.84
2017-05-31T06:32:57.128Z,100996.97
2017-05-31T06:35:26.211Z,101001.94
2017-05-31T06:37:54.496Z,100989.63
2017-05-31T06:40:23.581Z,100997.97
2017-05-31T06:42:52.656Z,101004.16
2017-05-31T06:45:21.969Z,101003.02
2017-05-31T06:47:50.272Z,101008.50
2017-05-31T06:50:19.330Z,101004.03
2017-05-31T06:52:48.388Z,101008.53
2017-05-31T06:55:16.701Z,101018.64
2017-05-31T06:57:45.757Z,101017.51
2017-05-31T07:00:14.817Z,101016.49
2017-05-31T07:02:43.132Z,101030.47
2017-05-31T07:05:12.208Z,101031.81
2017-05-31T07:07:41.281Z,101034.81
2017-05-31T07:10:10.379Z,101041.41
2017-05-31T07:12:39.431Z,101030.97
2017-05-31T07:15:07.777Z,101038.44
2017-05-31T07:17:36.848Z,101043.19
2017-05-31T07:20:05.904Z,101042.14
2017-05-31T07:22:34.227Z,101047.09
2017-05-31T07:25:02.768Z,101042.12
2017-05-31T07:27:31.056Z,101048.68
2017-05-31T07:30:00.121Z,101052.16
2017-05-31T07:32:29.179Z,101062.16
2017-05-31T07:34:58.222Z,101060.08
2017-05-31T07:37:26.526Z,101065.89
2017-05-31T07:39:55.605Z,101067.75
2017-05-31T07:42:23.915Z,101060.63
2017-05-31T07:44:52.975Z,101062.08
2017-05-31T07:47:21.266Z,101060.64
2017-05-31T07:49:50.443Z,101054.73
2017-05-31T07:52:19.547Z,101056.94
2017-05-31T07:54:48.025Z,101051.88
2017-05-31T07:57:17.094Z,101056.60
2017-05-31T07:59:46.170Z,101063.73
2017-05-31T08:02:15.249Z,101066.47
2017-05-31T08:04:44.296Z,101063.85
2017-05-31T08:07:13.395Z,101064.32
2017-05-31T08:09:42.440Z,101061.96
2017-05-31T08:12:10.734Z,101063.72
2017-05-31T08:14:40.003Z,101056.80
2017-05-31T08:17:09.065Z,101065.09
2017-05-31T08:19:38.153Z,101064.08
2017-05-31T08:22:07.253Z,101073.58
2017-05-31T08:24:35.549Z,101074.45
2017-05-31T08:27:03.837Z,101070.44
2017-05-31T08:29:33.045Z,101077.37
2017-05-31T08:32:01.316Z,101074.37
2017-05-31T08:34:29.605Z,101071.91
2017-05-31T08:36:58.678Z,101080.30
2017-05-31T08:39:27.729Z,101089.28
2017-05-31T08:41:56.876Z,101082.42
2017-05-31T08:44:25.951Z,101081.33
2017-05-31T08:46:54.275Z,101080.09
2017-05-31T08:49:23.326Z,101084.89
2017-05-31T08:51:52.197Z,101083.26
2017-05-31T08:54:21.260Z,101085.03
2017-05-31T08:56:50.142Z,101081.05
2017-05-31T08:59:19.252Z,101076.55
2017-05-31T09:01:47.675Z,101073.17
2017-05-31T09:04:15.976Z,101074.37
2017-05-31T09:06:45.052Z,101075.43
2017-05-31T09:09:14.131Z,101081.66
2017-05-31T09:11:43.457Z,101068.50
2017-05-31T09:14:11.757Z,101069.84
2017-05-31T09:16:40.796Z,101075.26
2017-05-31T09:19:09.853Z,101079.70
2017-05-31T09:21:38.937Z,101070.12
2017-05-31T09:24:07.983Z,101070.83
2017-05-31T09:26:37.065Z,101073.53
2017-05-31T09:29:06.100Z,101071.60
2017-05-31T09:31:35.164Z,101067.28
2017-05-31T09:34:03.472Z,101070.12
2017-05-31T09:36:31.774Z,101071.34
2017-05-31T09:39:00.820Z,101072.14
2017-05-31T09:41:29.917Z,101073.16
2017-05-31T09:43:58.967Z,101067.98
2017-05-31T09:46:28.029Z,101073.76
2017-05-31T09:48:57.129Z,101067.80
2017-05-31T09:51:25.443Z,101076.72
2017-05-31T09:53:54.492Z,101077.53
2017-05-31T09:56:23.564Z,101073.35
2017-05-31T09:58:52.691Z,101074.56
2017-05-31T10:01:21.013Z,101078.22
2017-05-31T10:03:50.281Z,101075.73
2017-05-31T10:06:18.601Z,101078.69
2017-05-31T10:08:47.669Z,101084.09
2017-05-31T10:11:16.001Z,101081.13
2017-05-31T10:13:44.308Z,101079.70
2017-05-31T10:16:13.377Z,101081.20
2017-05-31T10:18:42.445Z,101081.88
2017-05-31T10:21:10.865Z,101076.69
2017-05-31T10:23:39.880Z,101088.61
2017-05-31T10:26:09.021Z,101080.08
2017-05-31T10:28:38.059Z,101086.45
2017-05-31T10:31:07.160Z,101078.88
2017-05-31T10:33:35.455Z,101079.86
2017-05-31T10:36:03.773Z,101079.66
2017-05-31T10:38:32.815Z,101078.67
2017-05-31T10:41:01.891Z,101086.42
2017-05-31T10:43:30.192Z,101078.88
2017-05-31T10:45:58.460Z,101079.45
2017-05-31T10:48:27.629Z,101077.08
2017-05-31T10:50:56.712Z,101078.47
2017-05-31T10:53:25.020Z,101077.55
2017-05-31T10:55:54.094Z,101082.91
2017-05-31T10:58:23.745Z,101077.33
2017-05-31T11:00:52.795Z,101080.33
2017-05-31T11:03:21.124Z,101083.38
2017-05-31T11:05:50.216Z,101075.96
2017-05-31T11:08:19.291Z,101078.97
2017-05-31T11:10:48.372Z,101075.97
2017-05-31T11:13:16.693Z,101074.55
2017-05-31T11:15:45.037Z,101075.22
2017-05-31T11:18:14.133Z,101073.41
2017-05-31T11:20:43.209Z,101062.61
2017-05-31T11:23:11.545Z,101066.77
2017-05-31T11:25:40.621Z,101063.07
2017-05-31T11:28:08.916Z,101067.41
2017-05-31T11:30:37.995Z,101063.01
2017-05-31T11:33:07.072Z,101064.98
2017-05-31T11:35:36.124Z,101059.00
2017-05-31T11:38:05.189Z,101060.83
2017-05-31T11:40:34.245Z,101064.50
2017-05-31T11:43:02.531Z,101062.18
2017-05-31T11:45:31.119Z,101056.12
2017-05-31T11:47:59.404Z,101062.55
2017-05-31T11:50:28.460Z,101052.72
2017-05-31T11:52:57.615Z,101052.23
2017-05-31T11:55:26.679Z,101052.28
2017-05-31T11:57:55.743Z,101047.55
2017-05-31T12:00:24.892Z,101044.97
2017-05-31T12:02:53.936Z,101039.40
2017-05-31T12:05:22.236Z,101044.52
2017-05-31T12:07:51.465Z,101045.72
2017-05-31T12:10:20.519Z,101036.27
2017-05-31T12:12:51.007Z,101041.66
2017-05-31T12:15:19.305Z,101036.70
2017-05-31T12:17:48.681Z,101041.67
2017-05-31T12:20:17.777Z,101038.47
2017-05-31T12:22:46.083Z,101033.16
2017-05-31T12:25:14.375Z,101040.52
2017-05-31T12:27:43.458Z,101037.30
2017-05-31T12:30:12.516Z,101035.70
2017-05-31T12:32:41.560Z,101035.67
2017-05-31T12:35:10.927Z,101032.03
2017-05-31T12:37:39.966Z,101032.43
2017-05-31T12:40:09.824Z,101033.65
2017-05-31T12:42:38.123Z,101026.28
2017-05-31T12:45:06.427Z,101029.85
2017-05-31T12:47:35.460Z,101022.94
2017-05-31T12:50:04.516Z,101015.80
2017-05-31T12:52:32.844Z,101022.91
2017-05-31T12:55:01.925Z,101024.08
2017-05-31T12:57:30.961Z,101020.11
2017-05-31T13:00:00.044Z,101008.44
2017-05-31T13:02:28.360Z,101015.80
2017-05-31T13:04:56.644Z,101014.36
2017-05-31T13:07:25.709Z,101013.48
2017-05-31T13:09:54.824Z,101013.84
2017-05-31T13:12:23.873Z,101004.19
2017-05-31T13:14:52.925Z,101012.86
2017-05-31T13:17:21.233Z,101002.59
2017-05-31T13:19:50.479Z,100997.72
2017-05-31T13:22:18.760Z,101000.80
2017-05-31T13:24:47.085Z,101001.02
2017-05-31T13:27:15.397Z,100992.98
2017-05-31T13:29:44.447Z,100992.63
2017-05-31T13:32:12.728Z,100989.47
2017-05-31T13:34:41.059Z,100988.89
2017-05-31T13:37:09.359Z,100983.97
2017-05-31T13:39:38.436Z,100984.58
2017-05-31T13:42:07.505Z,100980.83
2017-05-31T13:44:36.585Z,100976.66
2017-05-31T13:47:05.670Z,100974.47
2017-05-31T13:49:34.781Z,100975.67
2017-05-31T13:52:03.136Z,100967.94
2017-05-31T13:54:32.361Z,100964.56
2017-05-31T13:57:00.646Z,100965.76
2017-05-31T13:59:29.718Z,100965.54
2017-05-31T14:01:58.933Z,100959.80
2017-05-31T14:04:27.296Z,100960.57
2017-05-31T14:06:56.454Z,100959.61
2017-05-31T14:09:25.612Z,100964.55
2017-05-31T14:11:54.684Z,100954.43
2017-05-31T14:14:23.013Z,100954.22
2017-05-31T14:16:52.083Z,100950.66
2017-05-31T14:19:21.141Z,100957.41
2017-05-31T14:21:49.451Z,100955.42
2017-05-31T14:24:18.496Z,100952.22
2017-05-31T14:26:46.763Z,100951.41
2017-05-31T14:29:16.112Z,100947.65
2017-05-31T14:31:44.405Z,100949.43
2017-05-31T14:34:13.467Z,100943.70
2017-05-31T14:36:42.749Z,100949.83
2017-05-31T14:39:11.825Z,100951.22
2017-05-31T14:41:40.870Z,100949.43
2017-05-31T14:44:09.189Z,100953.22
2017-05-31T14:46:38.256Z,100948.84
2017-05-31T14:49:07.324Z,100945.69
2017-05-31T14:51:36.403Z,100950.05
2017-05-31T14:54:05.723Z,100959.02
2017-05-31T14:56:34.793Z,100960.50
2017-05-31T14:59:03.896Z,100958.64
2017-05-31T15:01:32.948Z,100958.73
2017-05-31T15:04:01.257Z,100961.99
2017-05-31T15:06:30.343Z,100965.09
2017-05-31T15:08:59.413Z,100963.03
2017-05-31T15:11:28.474Z,100948.92
2017-05-31T15:13:56.768Z,100950.81
2017-05-31T15:16:25.831Z,100952.40
2017-05-31T15:18:54.899Z,100956.01
2017-05-31T15:21:23.201Z,100965.55
2017-05-31T15:23:51.538Z,100965.80
2017-05-31T15:26:20.628Z,100961.48
2017-05-31T15:28:49.768Z,100960.33
2017-05-31T15:31:18.837Z,100965.87
2017-05-31T15:33:48.026Z,100956.30
2017-05-31T15:36:16.312Z,100960.30
2017-05-31T15:38:45.394Z,100952.14
2017-05-31T15:41:14.445Z,100956.66
2017-05-31T15:43:43.644Z,100961.78
2017-05-31T15:46:12.000Z,100960.31
2017-05-31T15:48:41.075Z,100953.69
2017-05-31T15:51:09.383Z,100957.61
2017-05-31T15:53:38.532Z,100949.37
2017-05-31T15:56:07.694Z,100956.16
2017-05-31T15:58:36.980Z,100957.80
2017-05-31T16:01:06.044Z,100952.81
2017-05-31T16:03:35.112Z,100950.27
2017-05-31T16:06:04.196Z,100955.23
2017-05-31T16:08:33.266Z,100946.08
2017-05-31T16:11:03.180Z,100947.18
2017-05-31T16:13:32.585Z,100945.99
2017-05-31T16:16:01.668Z,100946.95
2017-05-31T16:18:30.712Z,100946.99
2017-05-31T16:20:59.070Z,100944.45
2017-05-31T16:23:28.139Z,100942.08
2017-05-31T16:25:57.219Z,100948.22
2017-05-31T16:28:26.269Z,100942.31
2017-05-31T16:30:54.617Z,100950.83
2017-05-31T16:33:22.911Z,100950.99
2017-05-31T16:35:52.411Z,100949.01
2017-05-31T16:38:20.705Z,100946.44
2017-05-31T16:40:50.428Z,100956.53
2017-05-31T16:43:18.724Z,100943.06
2017-05-31T16:45:47.789Z,100948.45
2017-05-31T16:48:16.113Z,100955.19
2017-05-31T16:50:45.163Z,100951.39
2017-05-31T16:53:13.485Z,100952.37
2017-05-31T16:55:42.537Z,100951.94
2017-05-31T16:58:11.585Z,100953.72
2017-05-31T17:00:40.654Z,100951.94
2017-05-31T17:03:08.975Z,100946.83
2017-05-31T17:05:37.273Z,100954.36
2017-05-31T17:08:05.623Z,100948.62
2017-05-31T17:10:34.672Z,100954.39
2017-05-31T17:13:03.735Z,100949.05
2017-05-31T17:15:32.061Z,100953.24
2017-05-31T17:18:01.135Z,100957.96
2017-05-31T17:20:30.826Z,100948.45
2017-05-31T17:22:59.900Z,100958.95
2017-05-31T17:25:28.985Z,100955.19
2017-05-31T17:27:58.082Z,100958.71
2017-05-31T17:30:27.179Z,100960.50
2017-05-31T17:32:56.247Z,100961.12
2017-05-31T17:35:25.316Z,100958.35
2017-05-31T17:37:54.526Z,100959.55
2017-05-31T17:40:23.597Z,100953.80
2017-05-31T17:42:52.716Z,100954.59
2017-05-31T17:45:21.778Z,100960.09
2017-05-31T17:47:51.931Z,100957.64
2017-05-31T17:50:21.073Z,100958.81
2017-05-31T17:52:50.177Z,100955.61
2017-05-31T17:55:19.253Z,100959.76
2017-05-31T17:57:48.312Z,100955.13
2017-05-31T18:00:17.454Z,100952.91
2017-05-31T18:02:45.807Z,100959.23
2017-05-31T18:05:14.140Z,100961.96
2017-05-31T18:07:43.212Z,100955.38
2017-05-31T18:10:12.581Z,100962.11
2017-05-31T18:12:41.646Z,100957.59
2017-05-31T18:15:10.704Z,100957.16
2017-05-31T18:17:39.768Z,100952.73
2017-05-31T18:20:09.158Z,100948.55
2017-05-31T18:22:38.204Z,100950.56
2017-05-31T18:25:07.282Z,100955.90
2017-05-31T18:27:36.360Z,100955.11
2017-05-31T18:30:05.426Z,100948.59
2017-05-31T18:32:34.492Z,100951.36
2017-05-31T18:35:04.252Z,100948.41
2017-05-31T18:37:33.304Z,100954.13
2017-05-31T18:40:02.353Z,100960.27
2017-05-31T18:42:32.434Z,100956.91
2017-05-31T18:45:00.907Z,100957.30
2017-05-31T18:47:29.969Z,100959.67
2017-05-31T18:49:59.279Z,100960.27
2017-05-31T18:52:28.335Z,100963.97
2017-05-31T18:54:58.472Z,100963.55
2017-05-31T18:57:27.539Z,100968.25
2017-05-31T18:59:56.606Z,100971.02
2017-05-31T19:02:24.918Z,100975.77
2017-05-31T19:04:54.065Z,100980.31
2017-05-31T19:07:22.379Z,100980.46
2017-05-31T19:09:51.702Z,100988.89
2017-05-31T19:12:21.435Z,100994.02
2017-05-31T19:14:49.711Z,100988.42
2017-05-31T19:17:18.892Z,100994.93
2017-05-31T19:19:48.185Z,100998.25
2017-05-31T19:22:16.473Z,100999.41
2017-05-31T19:24:44.838Z,101003.56
2017-05-31T19:27:13.192Z,101010.23
2017-05-31T19:29:42.261Z,101011.13
2017-05-31T19:32:11.340Z,101015.37
2017-05-31T19:34:39.654Z,101009.48
2017-05-31T19:37:08.817Z,101009.52
2017-05-31T19:39:37.875Z,101018.27
2017-05-31T19:42:06.976Z,101016.83
2017-05-31T19:44:36.048Z,101023.17
2017-05-31T19:47:05.119Z,101022.46
2017-05-31T19:49:34.184Z,101029.05
2017-05-31T19:52:03.278Z,101030.93
2017-05-31T19:54:32.339Z,101035.55
2017-05-31T19:57:01.414Z,101039.09
2017-05-31T19:59:30.497Z,101040.16
2017-05-31T20:02:00.639Z,101038.75
2017-05-31T20:04:29.735Z,101041.66
2017-05-31T20:06:59.561Z,101045.41
2017-05-31T20:09:28.651Z,101042.20
2017-05-31T20:11:58.552Z,101041.14
2017-05-31T20:14:27.907Z,101040.12
2017-05-31T20:16:56.957Z,101038.07
2017-05-31T20:19:26.036Z,101040.68
2017-05-31T20:21:55.114Z,101039.02
2017-05-31T20:24:24.174Z,101043.72
2017-05-31T20:26:53.224Z,101040.13
2017-05-31T20:29:22.438Z,101041.09
2017-05-31T20:31:51.628Z,101044.98
2017-05-31T20:34:20.687Z,101045.33
2017-05-31T20:36:49.788Z,101055.95
2017-05-31T20:39:18.844Z,101052.31
2017-05-31T20:41:47.891Z,101055.05
2017-05-31T20:44:16.966Z,101055.59
2017-05-31T20:46:46.037Z,101055.51
2017-05-31T20:49:15.099Z,101061.19
2017-05-31T20:51:44.173Z,101058.91
2017-05-31T20:54:13.250Z,101067.91
2017-05-31T20:56:42.295Z,101071.78
2017-05-31T20:59:11.401Z,101068.67
2017-05-31T21:01:40.458Z,101070.89
2017-05-31T21:04:09.558Z,101068.60
2017-05-31T21:06:38.644Z,101079.52
2017-05-31T21:09:08.070Z,101076.44
2017-05-31T21:11:37.143Z,101076.11
2017-05-31T21:14:06.285Z,101072.98
2017-05-31T21:16:35.356Z,101083.47
2017-05-31T21:19:05.302Z,101083.75
2017-05-31T21:21:34.395Z,101080.53
2017-05-31T21:24:03.467Z,101080.25
2017-05-31T21:26:32.536Z,101086.45
2017-05-31T21:29:01.609Z,101090.21
2017-05-31T21:31:30.685Z,101092.40
2017-05-31T21:33:59.751Z,101094.01
2017-05-31T21:36:28.808Z,101094.64
2017-05-31T21:38:57.884Z,101093.84
2017-05-31T21:41:26.994Z,101088.48
2017-05-31T21:43:56.055Z,101099.41
2017-05-31T21:46:25.109Z,101094.37
2017-05-31T21:48:54.181Z,101093.39
2017-05-31T21:51:23.238Z,101100.27
2017-05-31T21:53:52.379Z,101098.41
2017-05-31T21:56:22.178Z,101094.89
2017-05-31T21:58:51.623Z,101097.98
2017-05-31T22:01:20.779Z,101097.36
2017-05-31T22:03:49.850Z,101099.09
2017-05-31T22:06:18.939Z,101107.53
2017-05-31T22:08:47.992Z,101099.71
2017-05-31T22:11:17.094Z,101106.70
2017-05-31T22:13:46.185Z,101106.52
2017-05-31T22:16:15.506Z,101106.19
2017-05-31T22:18:44.591Z,101109.96
2017-05-31T22:21:13.645Z,101104.85
2017-05-31T22:23:42.717Z,101116.42
2017-05-31T22:26:11.805Z,101119.27
2017-05-31T22:28:40.854Z,101118.08
2017-05-31T22:31:09.926Z,101119.64
2017-05-31T22:33:38.988Z,101118.71
2017-05-31T22:36:08.057Z,101118.47
2017-05-31T22:38:37.125Z,101126.98
2017-05-31T22:41:06.314Z,101134.58
2017-05-31T22:43:35.755Z,101128.25
2017-05-31T22:46:04.817Z,101128.73
2017-05-31T22:48:33.865Z,101132.86
2017-05-31T22:51:02.981Z,101136.07
2017-05-31T22:53:32.068Z,101136.48
2017-05-31T22:56:01.137Z,101133.78
2017-05-31T22:58:30.188Z,101143.38
2017-05-31T23:00:59.276Z,101139.22
2017-05-31T23:03:28.345Z,101138.97
2017-05-31T23:05:57.456Z,101139.22
2017-05-31T23:08:26.518Z,101137.67
2017-05-31T23:10:55.583Z,101142.87
2017-05-31T23:13:24.653Z,101141.23
2017-05-31T23:15:53.748Z,101141.02
2017-05-31T23:18:22.894Z,101136.05
2017-05-31T23:20:51.971Z,101138.61
2017-05-31T23:23:21.019Z,101141.31
2017-05-31T23:25:50.473Z,101141.38
2017-05-31T23:28:19.815Z,101138.67
2017-05-31T23:30:49.272Z,101136.66
2017-05-31T23:33:18.332Z,101141.16
2017-05-31T23:35:47.388Z,101136.14
2017-05-31T23:38:16.454Z,101140.23
2017-05-31T23:40:45.509Z,101139.84
2017-05-31T23:43:14.613Z,101139.03
2017-05-31T23:45:43.657Z,101140.24
2017-05-31T23:48:12.758Z,101145.50
2017-05-31T23:50:41.817Z,101134.75
2017-05-31T23:53:10.877Z,101142.39
2017-05-31T23:55:39.952Z,101135.92
2017-05-31T23:58:09.039Z,101139.84
